sensor_id;sensor_type;location;lat;lon;timestamp;temperature;humidity
1686;DHT22;840;47.980;7.830;2022-11-20T00:01:13;8.70;99.90
1686;DHT22;840;47.980;7.830;2022-11-20T00:03:41;8.60;99.90
1686;DHT22;840;47.980;7.830;2022-11-20T00:06:10;8.70;99.90
1686;DHT22;840;47.980;7.830;2022-11-20T00:08:37;8.60;99.90
1686;DHT22;840;47.980;7.830;2022-11-20T00:11:04;8.60;99.90
1686;DHT22;840;47.980;7.830;2022-11-20T00:13:31;8.60;99.90
1686;DHT22;840;47.980;7.830;2022-11-20T00:16:01;8.60;99.90
1686;DHT22;840;47.980;7.830;2022-11-20T00:18:32;8.60;99.90
1686;DHT22;840;47.980;7.830;2022-11-20T00:21:03;8.60;99.90
1686;DHT22;840;47.980;7.830;2022-11-20T00:23:31;8.50;99.90
1686;DHT22;840;47.980;7.830;2022-11-20T00:26:01;8.50;99.90
1686;DHT22;840;47.980;7.830;2022-11-20T00:28:28;8.50;99.90
1686;DHT22;840;47.980;7.830;2022-11-20T00:31:02;8.50;99.90
1686;DHT22;840;47.980;7.830;2022-11-20T00:33:30;8.40;99.90
1686;DHT22;840;47.980;7.830;2022-11-20T00:36:00;8.40;99.90
1686;DHT22;840;47.980;7.830;2022-11-20T00:38:27;8.40;99.90
1686;DHT22;840;47.980;7.830;2022-11-20T00:40:57;8.40;99.90
1686;DHT22;840;47.980;7.830;2022-11-20T00:43:25;8.40;99.90
1686;DHT22;840;47.980;7.830;2022-11-20T00:45:56;8.40;99.90
1686;DHT22;840;47.980;7.830;2022-11-20T00:48:25;8.40;99.90
1686;DHT22;840;47.980;7.830;2022-11-20T00:50:52;8.40;99.90
1686;DHT22;840;47.980;7.830;2022-11-20T00:53:20;8.40;99.90
1686;DHT22;840;47.980;7.830;2022-11-20T00:55:53;8.40;99.90
1686;DHT22;840;47.980;7.830;2022-11-20T00:58:21;8.40;99.90
1686;DHT22;840;47.980;7.830;2022-11-20T01:00:47;8.40;99.90
1686;DHT22;840;47.980;7.830;2022-11-20T01:03:15;8.40;99.90
1686;DHT22;840;47.980;7.830;2022-11-20T01:05:44;8.40;99.90
1686;DHT22;840;47.980;7.830;2022-11-20T01:08:11;8.40;99.90
1686;DHT22;840;47.980;7.830;2022-11-20T01:10:37;8.30;99.90
1686;DHT22;840;47.980;7.830;2022-11-20T01:13:04;8.40;99.90
1686;DHT22;840;47.980;7.830;2022-11-20T01:16:04;8.30;99.90
1686;DHT22;840;47.980;7.830;2022-11-20T01:18:31;8.30;99.90
1686;DHT22;840;47.980;7.830;2022-11-20T01:21:02;8.30;99.90
1686;DHT22;840;47.980;7.830;2022-11-20T01:23:33;8.40;99.90
1686;DHT22;840;47.980;7.830;2022-11-20T01:26:01;8.40;99.90
1686;DHT22;840;47.980;7.830;2022-11-20T01:28:29;8.40;99.90
1686;DHT22;840;47.980;7.830;2022-11-20T01:30:56;8.30;99.90
1686;DHT22;840;47.980;7.830;2022-11-20T01:33:23;8.40;99.90
1686;DHT22;840;47.980;7.830;2022-11-20T01:35:51;8.30;99.90
1686;DHT22;840;47.980;7.830;2022-11-20T01:38:19;8.30;99.90
1686;DHT22;840;47.980;7.830;2022-11-20T01:40:54;8.30;99.90
1686;DHT22;840;47.980;7.830;2022-11-20T01:43:21;8.30;99.90
1686;DHT22;840;47.980;7.830;2022-11-20T01:45:59;8.30;99.90
1686;DHT22;840;47.980;7.830;2022-11-20T01:48:32;8.30;99.90
1686;DHT22;840;47.980;7.830;2022-11-20T01:51:00;8.30;99.90
1686;DHT22;840;47.980;7.830;2022-11-20T01:53:32;8.30;99.90
1686;DHT22;840;47.980;7.830;2022-11-20T01:56:01;8.30;99.90
1686;DHT22;840;47.980;7.830;2022-11-20T01:58:32;8.30;99.90
1686;DHT22;840;47.980;7.830;2022-11-20T02:01:00;8.30;99.90
1686;DHT22;840;47.980;7.830;2022-11-20T02:03:27;8.30;99.90
1686;DHT22;840;47.980;7.830;2022-11-20T02:05:57;8.30;99.90
1686;DHT22;840;47.980;7.830;2022-11-20T02:08:25;8.30;99.90
1686;DHT22;840;47.980;7.830;2022-11-20T02:10:54;8.30;99.90
1686;DHT22;840;47.980;7.830;2022-11-20T02:13:20;8.30;99.90
1686;DHT22;840;47.980;7.830;2022-11-20T02:16:09;8.30;99.90
1686;DHT22;840;47.980;7.830;2022-11-20T02:18:37;8.30;99.90
1686;DHT22;840;47.980;7.830;2022-11-20T02:21:08;8.40;99.90
1686;DHT22;840;47.980;7.830;2022-11-20T02:23:38;8.30;99.90
1686;DHT22;840;47.980;7.830;2022-11-20T02:26:10;8.30;99.90
1686;DHT22;840;47.980;7.830;2022-11-20T02:28:38;8.40;99.90
1686;DHT22;840;47.980;7.830;2022-11-20T02:31:05;8.40;99.90
1686;DHT22;840;47.980;7.830;2022-11-20T02:33:32;8.40;99.90
1686;DHT22;840;47.980;7.830;2022-11-20T02:35:59;8.40;99.90
1686;DHT22;840;47.980;7.830;2022-11-20T02:38:26;8.30;99.90
1686;DHT22;840;47.980;7.830;2022-11-20T02:40:53;8.40;99.90
1686;DHT22;840;47.980;7.830;2022-11-20T02:43:21;8.40;99.90
1686;DHT22;840;47.980;7.830;2022-11-20T02:45:48;8.40;99.90
1686;DHT22;840;47.980;7.830;2022-11-20T02:48:14;8.40;99.90
1686;DHT22;840;47.980;7.830;2022-11-20T02:50:41;8.40;99.90
1686;DHT22;840;47.980;7.830;2022-11-20T02:53:08;8.40;99.90
1686;DHT22;840;47.980;7.830;2022-11-20T02:55:35;8.40;99.90
1686;DHT22;840;47.980;7.830;2022-11-20T02:58:02;8.40;99.90
1686;DHT22;840;47.980;7.830;2022-11-20T03:00:31;8.30;99.90
1686;DHT22;840;47.980;7.830;2022-11-20T03:02:59;8.30;99.90
1686;DHT22;840;47.980;7.830;2022-11-20T03:05:26;8.30;99.90
1686;DHT22;840;47.980;7.830;2022-11-20T03:07:53;8.30;99.90
1686;DHT22;840;47.980;7.830;2022-11-20T03:10:20;8.30;99.90
1686;DHT22;840;47.980;7.830;2022-11-20T03:12:47;8.30;99.90
1686;DHT22;840;47.980;7.830;2022-11-20T03:15:14;8.30;99.90
1686;DHT22;840;47.980;7.830;2022-11-20T03:17:42;8.30;99.90
1686;DHT22;840;47.980;7.830;2022-11-20T03:20:10;8.30;99.90
1686;DHT22;840;47.980;7.830;2022-11-20T03:22:37;8.30;99.90
1686;DHT22;840;47.980;7.830;2022-11-20T03:25:04;8.30;99.90
1686;DHT22;840;47.980;7.830;2022-11-20T03:27:33;8.20;99.90
1686;DHT22;840;47.980;7.830;2022-11-20T03:30:00;8.20;99.90
1686;DHT22;840;47.980;7.830;2022-11-20T03:32:27;8.30;99.90
1686;DHT22;840;47.980;7.830;2022-11-20T03:34:55;8.20;99.90
1686;DHT22;840;47.980;7.830;2022-11-20T03:37:22;8.20;99.90
1686;DHT22;840;47.980;7.830;2022-11-20T03:39:49;8.20;99.90
1686;DHT22;840;47.980;7.830;2022-11-20T03:42:15;8.20;99.90
1686;DHT22;840;47.980;7.830;2022-11-20T03:44:56;8.20;99.90
1686;DHT22;840;47.980;7.830;2022-11-20T03:47:23;8.20;99.90
1686;DHT22;840;47.980;7.830;2022-11-20T03:49:49;8.30;99.90
1686;DHT22;840;47.980;7.830;2022-11-20T03:52:18;8.30;99.90
1686;DHT22;840;47.980;7.830;2022-11-20T03:54:45;8.30;99.90
1686;DHT22;840;47.980;7.830;2022-11-20T03:57:11;8.30;99.90
1686;DHT22;840;47.980;7.830;2022-11-20T03:59:38;8.30;99.90
1686;DHT22;840;47.980;7.830;2022-11-20T04:02:05;8.30;99.90
1686;DHT22;840;47.980;7.830;2022-11-20T04:04:32;8.30;99.90
1686;DHT22;840;47.980;7.830;2022-11-20T04:06:59;8.30;99.90
1686;DHT22;840;47.980;7.830;2022-11-20T04:09:27;8.30;99.90
1686;DHT22;840;47.980;7.830;2022-11-20T04:11:54;8.30;99.90
1686;DHT22;840;47.980;7.830;2022-11-20T04:14:21;8.30;99.90
1686;DHT22;840;47.980;7.830;2022-11-20T04:16:48;8.30;99.90
1686;DHT22;840;47.980;7.830;2022-11-20T04:19:15;8.30;99.90
1686;DHT22;840;47.980;7.830;2022-11-20T04:21:43;8.30;99.90
1686;DHT22;840;47.980;7.830;2022-11-20T04:24:10;8.30;99.90
1686;DHT22;840;47.980;7.830;2022-11-20T04:26:39;8.20;99.90
1686;DHT22;840;47.980;7.830;2022-11-20T04:29:06;8.30;99.90
1686;DHT22;840;47.980;7.830;2022-11-20T04:31:34;8.30;99.90
1686;DHT22;840;47.980;7.830;2022-11-20T04:34:02;8.30;99.90
1686;DHT22;840;47.980;7.830;2022-11-20T04:36:30;8.30;99.90
1686;DHT22;840;47.980;7.830;2022-11-20T04:38:58;8.30;99.90
1686;DHT22;840;47.980;7.830;2022-11-20T04:41:26;8.30;99.90
1686;DHT22;840;47.980;7.830;2022-11-20T04:43:59;8.30;99.90
1686;DHT22;840;47.980;7.830;2022-11-20T04:46:29;8.20;99.90
1686;DHT22;840;47.980;7.830;2022-11-20T04:48:58;8.20;99.90
1686;DHT22;840;47.980;7.830;2022-11-20T04:51:25;8.20;99.90
1686;DHT22;840;47.980;7.830;2022-11-20T04:53:53;8.20;99.90
1686;DHT22;840;47.980;7.830;2022-11-20T04:56:20;8.20;99.90
1686;DHT22;840;47.980;7.830;2022-11-20T04:58:46;8.20;99.90
1686;DHT22;840;47.980;7.830;2022-11-20T05:01:17;8.20;99.90
1686;DHT22;840;47.980;7.830;2022-11-20T05:03:44;8.20;99.90
1686;DHT22;840;47.980;7.830;2022-11-20T05:06:13;8.20;99.90
1686;DHT22;840;47.980;7.830;2022-11-20T05:08:40;8.20;99.90
1686;DHT22;840;47.980;7.830;2022-11-20T05:11:09;8.20;99.90
1686;DHT22;840;47.980;7.830;2022-11-20T05:13:36;8.20;99.90
1686;DHT22;840;47.980;7.830;2022-11-20T05:16:05;8.20;99.90
1686;DHT22;840;47.980;7.830;2022-11-20T05:18:35;8.20;99.90
1686;DHT22;840;47.980;7.830;2022-11-20T05:21:02;8.20;99.90
1686;DHT22;840;47.980;7.830;2022-11-20T05:23:30;8.10;99.90
1686;DHT22;840;47.980;7.830;2022-11-20T05:25:59;8.10;99.90
1686;DHT22;840;47.980;7.830;2022-11-20T05:28:26;8.10;99.90
1686;DHT22;840;47.980;7.830;2022-11-20T05:30:54;8.10;99.90
1686;DHT22;840;47.980;7.830;2022-11-20T05:33:21;8.10;99.90
1686;DHT22;840;47.980;7.830;2022-11-20T05:35:49;8.10;99.90
1686;DHT22;840;47.980;7.830;2022-11-20T05:38:16;8.10;99.90
1686;DHT22;840;47.980;7.830;2022-11-20T05:40:43;8.10;99.90
1686;DHT22;840;47.980;7.830;2022-11-20T05:43:10;8.20;99.90
1686;DHT22;840;47.980;7.830;2022-11-20T05:45:37;8.10;99.90
1686;DHT22;840;47.980;7.830;2022-11-20T05:48:04;8.10;99.90
1686;DHT22;840;47.980;7.830;2022-11-20T05:50:31;8.10;99.90
1686;DHT22;840;47.980;7.830;2022-11-20T05:52:59;8.20;99.90
1686;DHT22;840;47.980;7.830;2022-11-20T05:55:26;8.10;99.90
1686;DHT22;840;47.980;7.830;2022-11-20T05:57:53;8.20;99.90
1686;DHT22;840;47.980;7.830;2022-11-20T06:00:22;8.10;99.90
1686;DHT22;840;47.980;7.830;2022-11-20T06:02:49;8.20;99.90
1686;DHT22;840;47.980;7.830;2022-11-20T06:05:16;8.10;99.90
1686;DHT22;840;47.980;7.830;2022-11-20T06:07:43;8.20;99.90
1686;DHT22;840;47.980;7.830;2022-11-20T06:10:11;8.20;99.90
1686;DHT22;840;47.980;7.830;2022-11-20T06:12:38;8.20;99.90
1686;DHT22;840;47.980;7.830;2022-11-20T06:15:06;8.10;99.90
1686;DHT22;840;47.980;7.830;2022-11-20T06:17:33;8.20;99.90
1686;DHT22;840;47.980;7.830;2022-11-20T06:20:00;8.20;99.90
1686;DHT22;840;47.980;7.830;2022-11-20T06:22:27;8.20;99.90
1686;DHT22;840;47.980;7.830;2022-11-20T06:24:53;8.20;99.90
1686;DHT22;840;47.980;7.830;2022-11-20T06:27:22;8.20;99.90
1686;DHT22;840;47.980;7.830;2022-11-20T06:29:49;8.20;99.90
1686;DHT22;840;47.980;7.830;2022-11-20T06:32:15;8.20;99.90
1686;DHT22;840;47.980;7.830;2022-11-20T06:34:42;8.20;99.90
1686;DHT22;840;47.980;7.830;2022-11-20T06:37:09;8.20;99.90
1686;DHT22;840;47.980;7.830;2022-11-20T06:39:36;8.20;99.90
1686;DHT22;840;47.980;7.830;2022-11-20T06:42:02;8.20;99.90
1686;DHT22;840;47.980;7.830;2022-11-20T06:44:30;8.10;99.90
1686;DHT22;840;47.980;7.830;2022-11-20T06:46:58;8.10;99.90
1686;DHT22;840;47.980;7.830;2022-11-20T06:49:25;8.10;99.90
1686;DHT22;840;47.980;7.830;2022-11-20T06:51:52;8.10;99.90
1686;DHT22;840;47.980;7.830;2022-11-20T06:54:19;8.10;99.90
1686;DHT22;840;47.980;7.830;2022-11-20T06:56:46;8.10;99.90
1686;DHT22;840;47.980;7.830;2022-11-20T06:59:14;8.10;99.90
1686;DHT22;840;47.980;7.830;2022-11-20T07:01:44;8.10;99.90
1686;DHT22;840;47.980;7.830;2022-11-20T07:04:11;8.10;99.90
1686;DHT22;840;47.980;7.830;2022-11-20T07:06:39;8.10;99.90
1686;DHT22;840;47.980;7.830;2022-11-20T07:09:06;8.10;99.90
1686;DHT22;840;47.980;7.830;2022-11-20T07:11:32;8.10;99.90
1686;DHT22;840;47.980;7.830;2022-11-20T07:13:59;8.10;99.90
1686;DHT22;840;47.980;7.830;2022-11-20T07:16:26;8.20;99.90
1686;DHT22;840;47.980;7.830;2022-11-20T07:18:54;8.20;99.90
1686;DHT22;840;47.980;7.830;2022-11-20T07:21:21;8.20;99.90
1686;DHT22;840;47.980;7.830;2022-11-20T07:23:48;8.20;99.90
1686;DHT22;840;47.980;7.830;2022-11-20T07:26:15;8.20;99.90
1686;DHT22;840;47.980;7.830;2022-11-20T07:28:44;8.20;99.90
1686;DHT22;840;47.980;7.830;2022-11-20T07:31:11;8.30;99.90
1686;DHT22;840;47.980;7.830;2022-11-20T07:33:38;8.30;99.90
1686;DHT22;840;47.980;7.830;2022-11-20T07:36:07;8.30;99.90
1686;DHT22;840;47.980;7.830;2022-11-20T07:38:34;8.30;99.90
1686;DHT22;840;47.980;7.830;2022-11-20T07:41:02;8.30;99.90
1686;DHT22;840;47.980;7.830;2022-11-20T07:43:28;8.30;99.90
1686;DHT22;840;47.980;7.830;2022-11-20T07:45:55;8.30;99.90
1686;DHT22;840;47.980;7.830;2022-11-20T07:48:22;8.30;99.90
1686;DHT22;840;47.980;7.830;2022-11-20T07:50:49;8.30;99.90
1686;DHT22;840;47.980;7.830;2022-11-20T07:53:17;8.30;99.90
1686;DHT22;840;47.980;7.830;2022-11-20T07:55:46;8.30;99.90
1686;DHT22;840;47.980;7.830;2022-11-20T07:58:12;8.30;99.90
1686;DHT22;840;47.980;7.830;2022-11-20T08:00:43;8.30;99.90
1686;DHT22;840;47.980;7.830;2022-11-20T08:03:10;8.20;99.90
1686;DHT22;840;47.980;7.830;2022-11-20T08:05:36;8.20;99.90
1686;DHT22;840;47.980;7.830;2022-11-20T08:08:03;8.20;99.90
1686;DHT22;840;47.980;7.830;2022-11-20T08:10:33;8.20;99.90
1686;DHT22;840;47.980;7.830;2022-11-20T08:13:00;8.20;99.90
1686;DHT22;840;47.980;7.830;2022-11-20T08:15:48;8.20;99.90
1686;DHT22;840;47.980;7.830;2022-11-20T08:18:16;8.10;99.90
1686;DHT22;840;47.980;7.830;2022-11-20T08:20:43;8.10;99.90
1686;DHT22;840;47.980;7.830;2022-11-20T08:23:11;8.10;99.90
1686;DHT22;840;47.980;7.830;2022-11-20T08:25:39;8.20;99.90
1686;DHT22;840;47.980;7.830;2022-11-20T08:28:08;8.20;99.90
1686;DHT22;840;47.980;7.830;2022-11-20T08:30:36;8.20;99.90
1686;DHT22;840;47.980;7.830;2022-11-20T08:33:04;8.20;99.90
1686;DHT22;840;47.980;7.830;2022-11-20T08:35:33;8.20;99.90
1686;DHT22;840;47.980;7.830;2022-11-20T08:37:59;8.30;99.90
1686;DHT22;840;47.980;7.830;2022-11-20T08:40:26;8.30;99.90
1686;DHT22;840;47.980;7.830;2022-11-20T08:42:55;8.30;99.90
1686;DHT22;840;47.980;7.830;2022-11-20T08:45:22;8.30;99.90
1686;DHT22;840;47.980;7.830;2022-11-20T08:47:49;8.30;99.90
1686;DHT22;840;47.980;7.830;2022-11-20T08:50:16;8.40;99.90
1686;DHT22;840;47.980;7.830;2022-11-20T08:52:43;8.40;99.90
1686;DHT22;840;47.980;7.830;2022-11-20T08:55:10;8.40;99.90
1686;DHT22;840;47.980;7.830;2022-11-20T08:57:37;8.40;99.90
1686;DHT22;840;47.980;7.830;2022-11-20T09:00:07;8.50;99.90
1686;DHT22;840;47.980;7.830;2022-11-20T09:02:34;8.50;99.90
1686;DHT22;840;47.980;7.830;2022-11-20T09:05:01;8.50;99.90
1686;DHT22;840;47.980;7.830;2022-11-20T09:07:29;8.50;99.90
1686;DHT22;840;47.980;7.830;2022-11-20T09:09:55;8.60;99.90
1686;DHT22;840;47.980;7.830;2022-11-20T09:12:22;8.60;99.90
1686;DHT22;840;47.980;7.830;2022-11-20T09:14:49;8.60;99.90
1686;DHT22;840;47.980;7.830;2022-11-20T09:17:18;8.60;99.90
1686;DHT22;840;47.980;7.830;2022-11-20T09:19:46;8.60;99.90
1686;DHT22;840;47.980;7.830;2022-11-20T09:22:13;8.60;99.90
1686;DHT22;840;47.980;7.830;2022-11-20T09:24:40;8.50;99.90
1686;DHT22;840;47.980;7.830;2022-11-20T09:27:08;8.60;99.90
1686;DHT22;840;47.980;7.830;2022-11-20T09:29:35;8.60;99.90
1686;DHT22;840;47.980;7.830;2022-11-20T09:32:02;8.60;99.90
1686;DHT22;840;47.980;7.830;2022-11-20T09:34:31;8.60;99.90
1686;DHT22;840;47.980;7.830;2022-11-20T09:36:58;8.60;99.90
1686;DHT22;840;47.980;7.830;2022-11-20T09:39:25;8.60;99.90
1686;DHT22;840;47.980;7.830;2022-11-20T09:42:21;8.60;99.90
1686;DHT22;840;47.980;7.830;2022-11-20T09:47:49;8.60;99.90
1686;DHT22;840;47.980;7.830;2022-11-20T09:50:28;8.70;99.90
1686;DHT22;840;47.980;7.830;2022-11-20T09:53:16;8.70;99.90
1686;DHT22;840;47.980;7.830;2022-11-20T09:55:47;8.80;99.90
1686;DHT22;840;47.980;7.830;2022-11-20T09:58:21;8.90;99.90
1686;DHT22;840;47.980;7.830;2022-11-20T10:00:51;8.90;99.90
1686;DHT22;840;47.980;7.830;2022-11-20T10:03:29;8.90;99.90
1686;DHT22;840;47.980;7.830;2022-11-20T10:06:02;9.00;99.90
1686;DHT22;840;47.980;7.830;2022-11-20T10:08:36;9.00;99.90
1686;DHT22;840;47.980;7.830;2022-11-20T10:11:13;9.00;99.90
1686;DHT22;840;47.980;7.830;2022-11-20T10:13:54;9.00;99.90
1686;DHT22;840;47.980;7.830;2022-11-20T10:16:32;9.10;99.90
1686;DHT22;840;47.980;7.830;2022-11-20T10:19:11;9.10;99.90
1686;DHT22;840;47.980;7.830;2022-11-20T10:21:49;9.10;99.90
1686;DHT22;840;47.980;7.830;2022-11-20T10:24:33;9.20;99.90
1686;DHT22;840;47.980;7.830;2022-11-20T10:27:06;9.20;99.90
1686;DHT22;840;47.980;7.830;2022-11-20T10:29:40;9.20;99.90
1686;DHT22;840;47.980;7.830;2022-11-20T10:32:13;9.20;99.90
1686;DHT22;840;47.980;7.830;2022-11-20T10:34:46;9.20;99.90
1686;DHT22;840;47.980;7.830;2022-11-20T10:37:18;9.10;99.90
1686;DHT22;840;47.980;7.830;2022-11-20T10:39:51;9.10;99.90
1686;DHT22;840;47.980;7.830;2022-11-20T10:42:26;9.10;99.90
1686;DHT22;840;47.980;7.830;2022-11-20T10:45:09;9.20;99.90
1686;DHT22;840;47.980;7.830;2022-11-20T10:47:36;9.20;99.90
1686;DHT22;840;47.980;7.830;2022-11-20T10:50:08;9.30;99.90
1686;DHT22;840;47.980;7.830;2022-11-20T10:52:47;9.40;99.90
1686;DHT22;840;47.980;7.830;2022-11-20T10:55:27;9.40;99.90
1686;DHT22;840;47.980;7.830;2022-11-20T10:58:02;9.40;99.90
1686;DHT22;840;47.980;7.830;2022-11-20T11:00:32;9.50;99.90
1686;DHT22;840;47.980;7.830;2022-11-20T11:02:59;9.50;99.90
1686;DHT22;840;47.980;7.830;2022-11-20T11:05:34;9.50;99.90
1686;DHT22;840;47.980;7.830;2022-11-20T11:08:05;9.50;99.90
1686;DHT22;840;47.980;7.830;2022-11-20T11:10:40;9.60;99.90
1686;DHT22;840;47.980;7.830;2022-11-20T11:13:21;9.60;99.90
1686;DHT22;840;47.980;7.830;2022-11-20T11:15:48;9.70;99.90
1686;DHT22;840;47.980;7.830;2022-11-20T11:18:24;9.70;99.90
1686;DHT22;840;47.980;7.830;2022-11-20T11:20:52;9.80;99.90
1686;DHT22;840;47.980;7.830;2022-11-20T11:23:32;9.80;99.90
1686;DHT22;840;47.980;7.830;2022-11-20T11:26:01;9.80;99.90
1686;DHT22;840;47.980;7.830;2022-11-20T11:28:28;9.70;99.90
1686;DHT22;840;47.980;7.830;2022-11-20T11:30:58;9.70;99.90
1686;DHT22;840;47.980;7.830;2022-11-20T11:33:26;9.50;99.90
1686;DHT22;840;47.980;7.830;2022-11-20T11:35:55;9.50;99.90
1686;DHT22;840;47.980;7.830;2022-11-20T11:38:32;9.50;99.90
1686;DHT22;840;47.980;7.830;2022-11-20T11:41:01;9.40;99.90
1686;DHT22;840;47.980;7.830;2022-11-20T11:43:30;9.40;99.90
1686;DHT22;840;47.980;7.830;2022-11-20T11:46:29;9.40;99.90
1686;DHT22;840;47.980;7.830;2022-11-20T11:48:58;9.30;99.90
1686;DHT22;840;47.980;7.830;2022-11-20T11:51:31;9.30;99.90
1686;DHT22;840;47.980;7.830;2022-11-20T11:54:05;9.30;99.90
1686;DHT22;840;47.980;7.830;2022-11-20T11:56:37;9.30;99.90
1686;DHT22;840;47.980;7.830;2022-11-20T11:59:08;9.40;99.90
1686;DHT22;840;47.980;7.830;2022-11-20T12:01:42;9.50;99.90
1686;DHT22;840;47.980;7.830;2022-11-20T12:04:16;9.50;99.90
1686;DHT22;840;47.980;7.830;2022-11-20T12:06:47;9.50;99.90
1686;DHT22;840;47.980;7.830;2022-11-20T12:09:18;9.60;99.90
1686;DHT22;840;47.980;7.830;2022-11-20T12:11:49;9.70;99.90
1686;DHT22;840;47.980;7.830;2022-11-20T12:14:22;9.70;99.90
1686;DHT22;840;47.980;7.830;2022-11-20T12:16:54;9.80;99.90
1686;DHT22;840;47.980;7.830;2022-11-20T12:19:23;9.90;99.90
1686;DHT22;840;47.980;7.830;2022-11-20T12:21:55;10.00;99.90
1686;DHT22;840;47.980;7.830;2022-11-20T12:24:44;10.20;99.90
1686;DHT22;840;47.980;7.830;2022-11-20T12:27:35;10.20;99.90
1686;DHT22;840;47.980;7.830;2022-11-20T12:30:08;10.20;99.90
1686;DHT22;840;47.980;7.830;2022-11-20T12:33:07;10.10;99.90
1686;DHT22;840;47.980;7.830;2022-11-20T12:35:48;10.20;99.90
1686;DHT22;840;47.980;7.830;2022-11-20T12:41:20;10.10;99.90
1686;DHT22;840;47.980;7.830;2022-11-20T12:44:12;10.10;99.90
1686;DHT22;840;47.980;7.830;2022-11-20T12:47:08;10.10;99.90
1686;DHT22;840;47.980;7.830;2022-11-20T12:49:48;10.00;99.90
1686;DHT22;840;47.980;7.830;2022-11-20T12:52:28;9.90;99.90
1686;DHT22;840;47.980;7.830;2022-11-20T12:55:13;9.80;99.90
1686;DHT22;840;47.980;7.830;2022-11-20T12:57:50;9.80;99.90
1686;DHT22;840;47.980;7.830;2022-11-20T13:00:21;9.80;99.90
1686;DHT22;840;47.980;7.830;2022-11-20T13:03:05;9.70;99.90
1686;DHT22;840;47.980;7.830;2022-11-20T13:05:38;9.70;99.90
1686;DHT22;840;47.980;7.830;2022-11-20T13:08:18;9.70;99.90
1686;DHT22;840;47.980;7.830;2022-11-20T13:10:50;9.70;99.90
1686;DHT22;840;47.980;7.830;2022-11-20T13:13:25;9.70;99.90
1686;DHT22;840;47.980;7.830;2022-11-20T13:15:58;9.70;99.90
1686;DHT22;840;47.980;7.830;2022-11-20T13:18:37;9.70;99.90
1686;DHT22;840;47.980;7.830;2022-11-20T13:21:15;9.80;99.90
1686;DHT22;840;47.980;7.830;2022-11-20T13:23:43;9.80;99.90
1686;DHT22;840;47.980;7.830;2022-11-20T13:26:18;9.80;99.90
1686;DHT22;840;47.980;7.830;2022-11-20T13:28:48;9.80;99.90
1686;DHT22;840;47.980;7.830;2022-11-20T13:31:30;9.80;99.90
1686;DHT22;840;47.980;7.830;2022-11-20T13:33:58;9.80;99.90
1686;DHT22;840;47.980;7.830;2022-11-20T13:36:27;9.90;99.90
1686;DHT22;840;47.980;7.830;2022-11-20T13:38:56;9.90;99.90
1686;DHT22;840;47.980;7.830;2022-11-20T13:41:24;10.00;99.90
1686;DHT22;840;47.980;7.830;2022-11-20T13:43:58;10.10;99.90
1686;DHT22;840;47.980;7.830;2022-11-20T13:46:39;10.00;99.90
1686;DHT22;840;47.980;7.830;2022-11-20T13:49:15;10.00;99.90
1686;DHT22;840;47.980;7.830;2022-11-20T13:51:44;10.00;99.90
1686;DHT22;840;47.980;7.830;2022-11-20T13:54:45;10.10;99.90
1686;DHT22;840;47.980;7.830;2022-11-20T13:57:41;10.20;99.90
1686;DHT22;840;47.980;7.830;2022-11-20T14:00:13;10.20;99.90
1686;DHT22;840;47.980;7.830;2022-11-20T14:02:41;10.20;99.90
1686;DHT22;840;47.980;7.830;2022-11-20T14:05:18;10.20;99.90
1686;DHT22;840;47.980;7.830;2022-11-20T14:07:45;10.30;99.90
1686;DHT22;840;47.980;7.830;2022-11-20T14:10:20;10.20;99.90
1686;DHT22;840;47.980;7.830;2022-11-20T14:12:47;10.20;99.90
1686;DHT22;840;47.980;7.830;2022-11-20T14:15:26;10.10;99.90
1686;DHT22;840;47.980;7.830;2022-11-20T14:17:54;10.10;99.90
1686;DHT22;840;47.980;7.830;2022-11-20T14:20:24;10.10;99.90
1686;DHT22;840;47.980;7.830;2022-11-20T14:22:52;10.10;99.90
1686;DHT22;840;47.980;7.830;2022-11-20T14:25:22;10.10;99.90
1686;DHT22;840;47.980;7.830;2022-11-20T14:27:53;10.10;99.90
1686;DHT22;840;47.980;7.830;2022-11-20T14:30:23;10.00;99.90
1686;DHT22;840;47.980;7.830;2022-11-20T14:32:53;10.00;99.90
1686;DHT22;840;47.980;7.830;2022-11-20T14:35:24;10.00;99.90
1686;DHT22;840;47.980;7.830;2022-11-20T14:37:52;10.00;99.90
1686;DHT22;840;47.980;7.830;2022-11-20T14:40:25;10.00;99.90
1686;DHT22;840;47.980;7.830;2022-11-20T14:42:53;10.00;99.90
1686;DHT22;840;47.980;7.830;2022-11-20T14:45:20;9.90;99.90
1686;DHT22;840;47.980;7.830;2022-11-20T14:47:48;9.90;99.90
1686;DHT22;840;47.980;7.830;2022-11-20T14:50:20;9.90;99.90
1686;DHT22;840;47.980;7.830;2022-11-20T14:52:53;9.90;99.90
1686;DHT22;840;47.980;7.830;2022-11-20T14:55:29;9.90;99.90
1686;DHT22;840;47.980;7.830;2022-11-20T14:57:57;9.90;99.90
1686;DHT22;840;47.980;7.830;2022-11-20T15:00:24;9.90;99.90
1686;DHT22;840;47.980;7.830;2022-11-20T15:02:52;9.90;99.90
1686;DHT22;840;47.980;7.830;2022-11-20T15:05:23;9.90;99.90
1686;DHT22;840;47.980;7.830;2022-11-20T15:07:52;9.90;99.90
1686;DHT22;840;47.980;7.830;2022-11-20T15:10:30;9.90;99.90
1686;DHT22;840;47.980;7.830;2022-11-20T15:13:00;9.90;99.90
1686;DHT22;840;47.980;7.830;2022-11-20T15:15:45;9.90;99.90
1686;DHT22;840;47.980;7.830;2022-11-20T15:18:13;9.90;99.90
1686;DHT22;840;47.980;7.830;2022-11-20T15:20:42;9.80;99.90
1686;DHT22;840;47.980;7.830;2022-11-20T15:23:11;9.80;99.90
1686;DHT22;840;47.980;7.830;2022-11-20T15:25:38;9.80;99.90
1686;DHT22;840;47.980;7.830;2022-11-20T15:28:13;9.80;99.90
1686;DHT22;840;47.980;7.830;2022-11-20T15:30:41;9.80;99.90
1686;DHT22;840;47.980;7.830;2022-11-20T15:33:08;9.80;99.90
1686;DHT22;840;47.980;7.830;2022-11-20T15:35:36;9.70;99.90
1686;DHT22;840;47.980;7.830;2022-11-20T15:38:04;9.70;99.90
1686;DHT22;840;47.980;7.830;2022-11-20T15:40:31;9.70;99.90
1686;DHT22;840;47.980;7.830;2022-11-20T15:42:57;9.70;99.90
1686;DHT22;840;47.980;7.830;2022-11-20T15:45:34;9.70;99.90
1686;DHT22;840;47.980;7.830;2022-11-20T15:48:03;9.70;99.90
1686;DHT22;840;47.980;7.830;2022-11-20T15:50:36;9.60;99.90
1686;DHT22;840;47.980;7.830;2022-11-20T15:53:04;9.60;99.90
1686;DHT22;840;47.980;7.830;2022-11-20T15:55:31;9.60;99.90
1686;DHT22;840;47.980;7.830;2022-11-20T15:57:58;9.60;99.90
1686;DHT22;840;47.980;7.830;2022-11-20T16:00:25;9.50;99.90
1686;DHT22;840;47.980;7.830;2022-11-20T16:02:52;9.50;99.90
1686;DHT22;840;47.980;7.830;2022-11-20T16:05:19;9.50;99.90
1686;DHT22;840;47.980;7.830;2022-11-20T16:07:48;9.50;99.90
1686;DHT22;840;47.980;7.830;2022-11-20T16:10:17;9.40;99.90
1686;DHT22;840;47.980;7.830;2022-11-20T16:12:43;9.40;99.90
1686;DHT22;840;47.980;7.830;2022-11-20T16:15:28;9.30;99.90
1686;DHT22;840;47.980;7.830;2022-11-20T16:18:15;9.30;99.90
1686;DHT22;840;47.980;7.830;2022-11-20T16:20:43;9.30;99.90
1686;DHT22;840;47.980;7.830;2022-11-20T16:23:11;9.30;99.90
1686;DHT22;840;47.980;7.830;2022-11-20T16:25:39;9.30;99.90
1686;DHT22;840;47.980;7.830;2022-11-20T16:28:06;9.30;99.90
1686;DHT22;840;47.980;7.830;2022-11-20T16:30:33;9.30;99.90
1686;DHT22;840;47.980;7.830;2022-11-20T16:33:01;9.30;99.90
1686;DHT22;840;47.980;7.830;2022-11-20T16:35:29;9.30;99.90
1686;DHT22;840;47.980;7.830;2022-11-20T16:37:56;9.30;99.90
1686;DHT22;840;47.980;7.830;2022-11-20T16:40:24;9.30;99.90
1686;DHT22;840;47.980;7.830;2022-11-20T16:42:52;9.30;99.90
1686;DHT22;840;47.980;7.830;2022-11-20T16:45:19;9.30;99.90
1686;DHT22;840;47.980;7.830;2022-11-20T16:47:47;9.30;99.90
1686;DHT22;840;47.980;7.830;2022-11-20T16:50:13;9.30;99.90
1686;DHT22;840;47.980;7.830;2022-11-20T16:52:41;9.30;99.90
1686;DHT22;840;47.980;7.830;2022-11-20T16:55:10;9.30;99.90
1686;DHT22;840;47.980;7.830;2022-11-20T16:57:37;9.30;99.90
1686;DHT22;840;47.980;7.830;2022-11-20T17:00:09;9.30;99.90